Weather history for 0306

Weather History For Prescott AZ

This page updates 5 minutes after midnight. GMT -7

Station: KPRC0 Rows: 26

Return to today's weather
Year Date Temp (°F) Tmin (°F) Tmax (°F) RH% Prcp Snow Wind Gust Pres Sun Cloud
2000 2000-03-06 31.6 30.9 33.1 98 10.8 29.77 8
2001 2001-03-06 51.1 44.1 57.0 42 14.6 29.97 6
2002 2002-03-06 48.4 30.2 64.4 17 13.2 29.99 0
2003 2003-03-06 41.5 28.4 55.4 59 10.1 29.98 0
2004 2004-03-06 46.2 30.2 62.6 46 9.9 30.22 0
2005 2005-03-06 41.2 32.0 50.0 84 6.7 30.01 4
2006 2006-03-06 51.6 43.0 62.1 15 0.0 11.8 30.04 2
2007 2007-03-06 48.7 32.0 66.0 27 0.0 8.2 30.14 2
2008 2008-03-06 39.0 24.1 54.0 28 0.0 14.6 30.13 0
2009 2009-03-06 44.6 36.0 54.0 35 0.0 20.7 29.84 0
2010 2010-03-06 47.1 33.1 59.0 47 18.4 29.81 2
2011 2011-03-06 49.3 34.0 64.0 30 0.0 15.1 29.85 0
2012 2012-03-06 52.5 37.0 64.0 21 0.0 26.6 29.67 0
2013 2013-03-06 50.0 37.9 64.0 38 0.0 11.2 29.93 0
2014 2014-03-06 52.7 41.0 64.9 32 0.0 7.4 29.97 1
2015 2015-03-06 44.1 24.1 64.9 37 0.0 8.8 30.19 0
2016 2016-03-06 52.2 37.9 62.1 47 19.9 29.80
2017 2017-03-06 42.3 33.1 53.1 40 0.0 8.7 29.97 1
2018 2018-03-06 41.5 25.0 62.1 25 0.0 7.2 30.11 0
2019 2019-03-06 55.0 46.9 64.0 42 19.5 29.90
2020 2020-03-06 52.0 37.0 66.9 38 0.0 11.9 30.05 0
2021 2021-03-06 50.5 36.0 66.0 37 0.0 10.9 29.95 0
2022 2022-03-06 33.4 19.9 44.1 68 10.3 30.03
2023 2023-03-06 46.4 37.0 59.0 36 0.0 15.1 29.96 0
2024 2024-03-06 45.9 36.0 57.9 47 0.0 9.6 29.80 0
2025 2025-03-06 43.3 35.1 50.0 51 26.0 29.67 5
Average Low 33.9
Average High 58.6

Daily High / Low by Year (03/06)

Barometric Pressure by Year (03/06)

Weather data provided by Meteostat